createdAt,value
2023-05-10T00:00:20.693Z,1529.00
2023-05-10T00:01:20.698Z,1538.00
2023-05-10T00:02:20.743Z,1544.00
2023-05-10T00:03:20.798Z,1545.00
2023-05-10T00:04:20.818Z,1527.00
2023-05-10T00:05:20.741Z,1547.00
2023-05-10T00:06:20.694Z,1544.00
2023-05-10T00:07:20.711Z,1543.00
2023-05-10T00:08:20.697Z,1547.00
2023-05-10T00:09:20.711Z,1555.00
2023-05-10T00:10:20.686Z,1550.00
2023-05-10T00:11:22.883Z,1550.00
2023-05-10T00:12:20.724Z,1544.00
2023-05-10T00:13:20.762Z,1576.00
2023-05-10T00:14:20.662Z,1542.00
2023-05-10T00:15:20.688Z,1558.00
2023-05-10T00:16:20.752Z,1555.00
2023-05-10T00:17:20.711Z,1552.00
2023-05-10T00:18:20.667Z,1563.00
2023-05-10T00:19:20.687Z,1559.00
2023-05-10T00:20:20.684Z,1545.00
2023-05-10T00:21:20.724Z,1541.00
2023-05-10T00:22:20.661Z,1551.00
2023-05-10T00:23:20.707Z,1537.00
2023-05-10T00:24:20.698Z,1550.00
2023-05-10T00:25:20.672Z,1548.00
2023-05-10T00:26:20.660Z,1555.00
2023-05-10T00:27:20.649Z,1561.00
2023-05-10T00:28:20.714Z,1564.00
2023-05-10T00:29:20.660Z,1576.00
2023-05-10T00:30:20.676Z,1562.00
2023-05-10T00:31:20.651Z,1553.00
2023-05-10T00:32:20.819Z,1561.00
2023-05-10T00:33:20.671Z,1564.00
2023-05-10T00:34:20.646Z,1558.00
2023-05-10T00:35:20.661Z,1547.00
2023-05-10T00:36:20.677Z,1557.00
2023-05-10T00:37:20.640Z,1572.00
2023-05-10T00:38:20.671Z,1562.00
2023-05-10T00:39:20.672Z,1565.00
2023-05-10T00:40:20.689Z,1577.00
2023-05-10T00:41:21.606Z,1580.00
2023-05-10T00:42:20.680Z,1575.00
2023-05-10T00:43:20.653Z,1568.00
2023-05-10T00:44:20.666Z,1576.00
2023-05-10T00:45:20.667Z,1573.00
2023-05-10T00:46:20.659Z,1577.00
2023-05-10T00:47:20.699Z,1587.00
2023-05-10T00:48:20.650Z,1577.00
2023-05-10T00:49:20.640Z,1592.00
2023-05-10T00:50:20.642Z,1595.00
2023-05-10T00:51:20.669Z,1585.00
2023-05-10T00:52:20.691Z,1577.00
2023-05-10T00:53:20.673Z,1576.00
2023-05-10T00:54:20.675Z,1597.00
2023-05-10T00:55:20.641Z,1587.00
2023-05-10T00:56:20.655Z,1597.00
2023-05-10T00:57:20.627Z,1566.00
2023-05-10T00:58:20.657Z,1579.00
2023-05-10T00:59:20.644Z,1589.00
2023-05-10T01:00:20.630Z,1591.00
2023-05-10T01:01:20.674Z,1581.00
2023-05-10T01:02:20.702Z,1591.00
2023-05-10T01:03:20.780Z,1560.00
2023-05-10T01:04:20.696Z,1579.00
2023-05-10T01:05:20.822Z,1575.00
2023-05-10T01:06:20.647Z,1586.00
2023-05-10T01:07:20.668Z,1590.00
2023-05-10T01:08:20.694Z,1587.00
2023-05-10T01:09:20.676Z,1576.00
2023-05-10T01:10:20.657Z,1592.00
2023-05-10T01:11:20.671Z,1579.00
2023-05-10T01:12:20.701Z,1587.00
2023-05-10T01:13:20.741Z,1593.00
2023-05-10T01:14:20.642Z,1604.00
2023-05-10T01:15:20.666Z,1594.00
2023-05-10T01:16:20.709Z,1603.00
2023-05-10T01:17:20.673Z,1592.00
2023-05-10T01:18:20.660Z,1578.00
2023-05-10T01:19:20.661Z,1579.00
2023-05-10T01:20:20.666Z,1586.00
2023-05-10T01:21:20.655Z,1586.00
2023-05-10T01:22:20.672Z,1594.00
2023-05-10T01:23:20.671Z,1583.00
2023-05-10T01:24:20.684Z,1598.00
2023-05-10T01:25:20.693Z,1602.00
2023-05-10T01:26:20.696Z,1599.00
2023-05-10T01:27:20.675Z,1584.00
2023-05-10T01:28:20.664Z,1582.00
2023-05-10T01:29:20.657Z,1592.00
2023-05-10T01:31:20.800Z,1581.00
2023-05-10T01:32:20.677Z,1589.00
2023-05-10T01:33:20.703Z,1610.00
2023-05-10T01:34:20.679Z,1595.00
2023-05-10T01:35:20.688Z,1587.00
2023-05-10T01:36:20.713Z,1605.00
2023-05-10T01:37:20.681Z,1574.00
2023-05-10T01:38:20.664Z,1590.00
2023-05-10T01:39:20.687Z,1586.00
2023-05-10T01:40:20.675Z,1582.00
2023-05-10T01:41:20.702Z,1572.00
2023-05-10T01:42:20.701Z,1577.00
2023-05-10T01:43:20.807Z,1577.00
2023-05-10T01:44:20.675Z,1586.00
2023-05-10T01:45:20.732Z,1586.00
2023-05-10T01:46:20.678Z,1575.00
2023-05-10T01:47:20.677Z,1593.00
2023-05-10T01:48:20.701Z,1583.00
2023-05-10T01:49:20.664Z,1577.00
2023-05-10T01:50:20.717Z,1588.00
2023-05-10T01:51:20.668Z,1595.00
2023-05-10T01:52:20.727Z,1578.00
2023-05-10T01:53:20.694Z,1576.00
2023-05-10T01:54:20.681Z,1583.00
2023-05-10T01:55:20.691Z,1575.00
2023-05-10T01:56:20.689Z,1587.00
2023-05-10T01:57:20.690Z,1578.00
2023-05-10T01:58:20.687Z,1572.00
2023-05-10T01:59:20.725Z,1587.00
2023-05-10T02:00:20.681Z,1599.00
2023-05-10T02:01:20.773Z,1601.00
2023-05-10T02:02:20.667Z,1600.00
2023-05-10T02:03:20.736Z,1592.00
2023-05-10T02:04:20.635Z,1606.00
2023-05-10T02:05:20.648Z,1615.00
2023-05-10T02:06:20.638Z,1601.00
2023-05-10T02:07:20.642Z,1598.00
2023-05-10T02:08:20.682Z,1587.00
2023-05-10T02:09:20.663Z,1594.00
2023-05-10T02:10:20.683Z,1592.00
2023-05-10T02:11:20.657Z,1576.00
2023-05-10T02:12:20.653Z,1593.00
2023-05-10T02:13:20.751Z,1591.00
2023-05-10T02:14:20.688Z,1590.00
2023-05-10T02:15:20.662Z,1604.00
2023-05-10T02:16:20.696Z,1579.00
2023-05-10T02:17:20.636Z,1594.00
2023-05-10T02:18:20.667Z,1602.00
2023-05-10T02:19:20.672Z,1584.00
2023-05-10T02:20:20.685Z,1606.00
2023-05-10T02:21:20.649Z,1587.00
2023-05-10T02:22:20.634Z,1585.00
2023-05-10T02:23:20.657Z,1593.00
2023-05-10T02:24:20.650Z,1589.00
2023-05-10T02:25:20.653Z,1597.00
2023-05-10T02:26:20.652Z,1588.00
2023-05-10T02:27:20.645Z,1600.00
2023-05-10T02:28:20.662Z,1591.00
2023-05-10T02:29:20.740Z,1598.00
2023-05-10T02:30:20.672Z,1603.00
2023-05-10T02:31:20.704Z,1598.00
2023-05-10T02:32:20.652Z,1611.00
2023-05-10T02:33:20.653Z,1591.00
2023-05-10T02:34:20.664Z,1610.00
2023-05-10T02:35:20.698Z,1592.00
2023-05-10T02:36:20.684Z,1593.00
2023-05-10T02:37:20.681Z,1603.00
2023-05-10T02:38:20.682Z,1611.00
2023-05-10T02:39:20.670Z,1606.00
2023-05-10T02:40:20.633Z,1613.00
2023-05-10T02:41:20.640Z,1602.00
2023-05-10T02:42:20.674Z,1600.00
2023-05-10T02:43:20.645Z,1608.00
2023-05-10T02:44:20.703Z,1602.00
2023-05-10T02:45:20.656Z,1610.00
2023-05-10T02:46:20.764Z,1607.00
2023-05-10T02:47:20.714Z,1601.00
2023-05-10T02:48:20.749Z,1608.00
2023-05-10T02:49:20.700Z,1609.00
2023-05-10T02:50:20.701Z,1607.00
2023-05-10T02:51:20.701Z,1601.00
2023-05-10T02:52:20.720Z,1610.00
2023-05-10T02:53:20.711Z,1607.00
2023-05-10T02:54:20.700Z,1603.00
2023-05-10T02:55:20.712Z,1607.00
2023-05-10T02:56:20.681Z,1606.00
2023-05-10T02:57:20.707Z,1610.00
2023-05-10T02:58:20.698Z,1610.00
2023-05-10T02:59:20.722Z,1594.00
2023-05-10T03:00:20.720Z,1611.00
2023-05-10T03:01:20.772Z,1593.00
2023-05-10T03:02:20.734Z,1594.00
2023-05-10T03:03:20.731Z,1606.00
2023-05-10T03:04:20.709Z,1607.00
2023-05-10T03:05:20.742Z,1599.00
2023-05-10T03:06:20.722Z,1585.00
2023-05-10T03:07:20.715Z,1600.00
2023-05-10T03:08:20.740Z,1600.00
2023-05-10T03:09:20.709Z,1606.00
2023-05-10T03:10:20.714Z,1595.00
2023-05-10T03:11:20.726Z,1604.00
2023-05-10T03:12:20.735Z,1590.00
2023-05-10T03:13:20.795Z,1590.00
2023-05-10T03:14:20.731Z,1612.00
2023-05-10T03:15:20.756Z,1605.00
2023-05-10T03:16:20.750Z,1600.00
2023-05-10T03:17:20.740Z,1606.00
2023-05-10T03:18:20.740Z,1605.00
2023-05-10T03:19:20.727Z,1604.00
2023-05-10T03:20:20.730Z,1597.00
2023-05-10T03:21:20.753Z,1581.00
2023-05-10T03:22:20.708Z,1601.00
2023-05-10T03:23:20.711Z,1595.00
2023-05-10T03:24:20.702Z,1605.00
2023-05-10T03:25:20.752Z,1611.00
2023-05-10T03:26:20.713Z,1602.00
2023-05-10T03:27:20.738Z,1599.00
2023-05-10T03:28:20.745Z,1591.00
2023-05-10T03:29:20.718Z,1604.00
2023-05-10T03:30:20.762Z,1610.00
2023-05-10T03:31:20.743Z,1600.00
2023-05-10T03:32:20.776Z,1599.00
2023-05-10T03:33:20.745Z,1610.00
2023-05-10T03:34:20.703Z,1594.00
2023-05-10T03:35:20.773Z,1612.00
2023-05-10T03:36:20.741Z,1599.00
2023-05-10T03:37:20.766Z,1611.00
2023-05-10T03:38:20.758Z,1597.00
2023-05-10T03:39:20.730Z,1601.00
2023-05-10T03:40:20.741Z,1596.00
2023-05-10T03:41:20.727Z,1591.00
2023-05-10T03:42:20.747Z,1595.00
2023-05-10T03:43:20.736Z,1594.00
2023-05-10T03:44:20.706Z,1612.00
2023-05-10T03:45:20.704Z,1610.00
2023-05-10T03:46:20.743Z,1610.00
2023-05-10T03:47:20.748Z,1599.00
2023-05-10T03:48:20.711Z,1590.00
2023-05-10T03:49:20.706Z,1592.00
2023-05-10T03:50:20.695Z,1587.00
2023-05-10T03:51:20.709Z,1607.00
2023-05-10T03:52:20.715Z,1618.00
2023-05-10T03:53:20.707Z,1600.00
2023-05-10T03:54:20.710Z,1612.00
2023-05-10T03:55:20.725Z,1585.00
2023-05-10T03:56:20.689Z,1582.00
2023-05-10T03:57:20.687Z,1588.00
2023-05-10T03:58:20.688Z,1570.00
2023-05-10T03:59:20.701Z,1587.00
2023-05-10T04:00:20.686Z,1593.00
2023-05-10T04:01:20.717Z,1593.00
2023-05-10T04:02:20.807Z,1587.00
2023-05-10T04:03:20.801Z,1583.00
2023-05-10T04:04:20.749Z,1571.00
2023-05-10T04:05:20.680Z,1576.00
2023-05-10T04:06:20.767Z,1589.00
2023-05-10T04:07:20.678Z,1582.00
2023-05-10T04:08:20.673Z,1597.00
2023-05-10T04:09:20.669Z,1580.00
2023-05-10T04:10:20.665Z,1587.00
2023-05-10T04:11:20.652Z,1583.00
2023-05-10T04:12:20.659Z,1597.00
2023-05-10T04:13:20.791Z,1590.00
2023-05-10T04:14:20.665Z,1590.00
2023-05-10T04:15:20.662Z,1590.00
2023-05-10T04:16:20.700Z,1581.00
2023-05-10T04:17:20.693Z,1598.00
2023-05-10T04:18:20.627Z,1595.00
2023-05-10T04:19:20.621Z,1569.00
2023-05-10T04:20:20.651Z,1585.00
2023-05-10T04:21:20.642Z,1578.00
2023-05-10T04:22:20.636Z,1583.00
2023-05-10T04:23:20.670Z,1578.00
2023-05-10T04:24:20.608Z,1577.00
2023-05-10T04:25:20.676Z,1591.00
2023-05-10T04:26:20.640Z,1588.00
2023-05-10T04:27:20.623Z,1553.00
2023-05-10T04:28:20.616Z,1584.00
2023-05-10T04:29:20.623Z,1568.00
2023-05-10T04:30:20.645Z,1590.00
2023-05-10T04:31:20.727Z,1604.00
2023-05-10T04:32:20.639Z,1585.00
2023-05-10T04:33:20.646Z,1587.00
2023-05-10T04:34:20.621Z,1581.00
2023-05-10T04:35:20.645Z,1594.00
2023-05-10T04:36:20.657Z,1582.00
2023-05-10T04:37:20.606Z,1592.00
2023-05-10T04:38:20.631Z,1577.00
2023-05-10T04:39:20.630Z,1571.00
2023-05-10T04:40:20.596Z,1575.00
2023-05-10T04:41:20.586Z,1571.00
2023-05-10T04:42:20.603Z,1602.00
2023-05-10T04:43:20.660Z,1576.00
2023-05-10T04:44:20.589Z,1570.00
2023-05-10T04:45:20.595Z,1583.00
2023-05-10T04:46:20.659Z,1572.00
2023-05-10T04:47:20.642Z,1563.00
2023-05-10T04:48:20.587Z,1577.00
2023-05-10T04:49:20.602Z,1566.00
2023-05-10T04:50:20.600Z,1579.00
2023-05-10T04:51:20.587Z,1588.00
2023-05-10T04:52:20.584Z,1572.00
2023-05-10T04:53:20.592Z,1580.00
2023-05-10T04:54:20.596Z,1570.00
2023-05-10T04:55:20.734Z,1571.00
2023-05-10T04:56:20.619Z,1570.00
2023-05-10T04:57:20.609Z,1577.00
2023-05-10T04:58:20.624Z,1569.00
2023-05-10T04:59:20.620Z,1573.00
2023-05-10T05:00:20.604Z,1578.00
2023-05-10T05:01:20.640Z,1570.00
2023-05-10T05:02:20.642Z,1560.00
2023-05-10T05:03:20.754Z,1556.00
2023-05-10T05:04:20.587Z,1579.00
2023-05-10T05:05:20.595Z,1563.00
2023-05-10T05:06:20.644Z,1564.00
2023-05-10T05:07:20.588Z,1561.00
2023-05-10T05:08:20.659Z,1559.00
2023-05-10T05:09:20.608Z,1566.00
2023-05-10T05:10:20.670Z,1568.00
2023-05-10T05:11:20.598Z,1555.00
2023-05-10T05:12:20.592Z,1570.00
2023-05-10T05:13:20.654Z,1560.00
2023-05-10T05:14:20.610Z,1563.00
2023-05-10T05:15:20.605Z,1565.00
2023-05-10T05:16:20.669Z,1561.00
2023-05-10T05:17:20.616Z,1557.00
2023-05-10T05:18:20.628Z,1559.00
2023-05-10T05:19:20.624Z,1568.00
2023-05-10T05:20:20.656Z,1559.00
2023-05-10T05:21:20.599Z,1569.00
2023-05-10T05:22:20.614Z,1570.00
2023-05-10T05:23:20.583Z,1570.00
2023-05-10T05:24:20.608Z,1554.00
2023-05-10T05:25:20.624Z,1561.00
2023-05-10T05:26:20.591Z,1565.00
2023-05-10T05:27:20.576Z,1550.00
2023-05-10T05:28:20.598Z,1553.00
2023-05-10T05:29:20.610Z,1559.00
2023-05-10T05:30:20.561Z,1549.00
2023-05-10T05:31:20.613Z,1555.00
2023-05-10T05:32:20.570Z,1554.00
2023-05-10T05:33:20.554Z,1561.00
2023-05-10T05:34:20.774Z,1601.00
2023-05-10T05:35:20.582Z,1588.00
2023-05-10T05:36:21.264Z,1657.00
2023-05-10T05:37:20.585Z,1701.00
2023-05-10T05:38:20.602Z,1732.00
2023-05-10T05:39:20.729Z,1849.00
2023-05-10T05:40:20.661Z,1962.00
2023-05-10T05:41:20.685Z,1994.00
2023-05-10T05:42:20.682Z,1965.00
2023-05-10T05:43:20.727Z,1903.00
2023-05-10T05:44:20.750Z,1946.00
2023-05-10T05:45:20.786Z,1976.00
2023-05-10T05:46:27.846Z,1890.00
2023-05-10T05:47:20.759Z,1893.00
2023-05-10T05:48:20.749Z,1906.00
2023-05-10T05:49:20.892Z,1911.00
2023-05-10T05:50:20.744Z,1972.00
2023-05-10T05:51:20.774Z,2003.00
2023-05-10T05:52:20.737Z,1922.00
2023-05-10T05:53:20.746Z,2035.00
2023-05-10T05:54:20.804Z,2056.00
2023-05-10T05:55:20.774Z,1941.00
2023-05-10T05:56:20.729Z,1898.00
2023-05-10T05:57:20.729Z,1910.00
2023-05-10T05:58:20.736Z,1874.00
2023-05-10T05:59:20.785Z,1835.00
2023-05-10T06:00:20.705Z,1875.00
2023-05-10T06:01:20.654Z,1831.00
2023-05-10T06:02:20.744Z,1834.00
2023-05-10T06:03:20.989Z,1803.00
2023-05-10T06:04:20.713Z,1798.00
2023-05-10T06:05:20.660Z,1752.00
2023-05-10T06:06:20.708Z,1719.00
2023-05-10T06:07:20.655Z,1766.00
2023-05-10T06:08:20.637Z,1746.00
2023-05-10T06:09:20.798Z,1735.00
2023-05-10T06:10:20.624Z,1720.00
2023-05-10T06:11:20.618Z,1675.00
2023-05-10T06:12:20.602Z,1636.00
2023-05-10T06:13:20.651Z,1653.00
2023-05-10T06:14:20.641Z,1637.00
2023-05-10T06:15:20.599Z,1600.00
2023-05-10T06:16:20.581Z,1624.00
2023-05-10T06:17:20.619Z,1572.00
2023-05-10T06:18:20.612Z,1597.00
2023-05-10T06:19:20.567Z,1589.00
2023-05-10T06:20:20.585Z,1550.00
2023-05-10T06:21:20.537Z,1544.00
2023-05-10T06:22:20.543Z,1528.00
2023-05-10T06:23:20.508Z,1528.00
2023-05-10T06:24:20.566Z,1514.00
2023-05-10T06:25:20.564Z,1532.00
2023-05-10T06:26:20.524Z,1518.00
2023-05-10T06:27:20.517Z,1492.00
2023-05-10T06:28:20.525Z,1518.00
2023-05-10T06:29:20.534Z,1484.00
2023-05-10T06:30:20.611Z,1468.00
2023-05-10T06:31:20.726Z,1483.00
2023-05-10T06:32:20.661Z,1502.00
2023-05-10T06:33:20.679Z,1442.00
2023-05-10T06:34:20.735Z,1457.00
2023-05-10T06:35:20.740Z,1477.00
2023-05-10T06:36:20.736Z,1467.00
2023-05-10T06:37:20.797Z,1432.00
2023-05-10T06:38:20.859Z,1417.00
2023-05-10T06:39:20.869Z,1388.00
2023-05-10T06:40:20.906Z,1395.00
2023-05-10T06:41:22.529Z,1380.00
2023-05-10T06:42:20.936Z,1362.00
2023-05-10T06:43:20.893Z,1354.00
2023-05-10T06:44:20.897Z,1346.00
2023-05-10T06:45:21.113Z,1344.00
2023-05-10T06:46:20.953Z,1343.00
2023-05-10T06:47:20.884Z,1327.00
2023-05-10T06:48:20.920Z,1326.00
2023-05-10T06:49:20.873Z,1329.00
2023-05-10T06:50:20.865Z,1320.00
2023-05-10T06:51:20.846Z,1315.00
2023-05-10T06:52:20.856Z,1341.00
2023-05-10T06:53:20.860Z,1330.00
2023-05-10T06:54:20.862Z,1333.00
2023-05-10T06:55:20.827Z,1311.00
2023-05-10T06:56:20.826Z,1341.00
2023-05-10T06:57:31.128Z,1345.00
2023-05-10T06:58:21.812Z,1346.00
2023-05-10T06:59:21.406Z,1346.00
2023-05-10T07:00:21.199Z,1346.00
2023-05-10T07:01:20.857Z,1337.00
2023-05-10T07:02:21.060Z,1315.00
2023-05-10T07:03:20.795Z,1273.00
2023-05-10T07:04:20.789Z,1236.00
2023-05-10T07:05:21.142Z,1262.00
2023-05-10T07:06:32.278Z,1270.00
2023-05-10T07:07:21.771Z,1270.00
2023-05-10T07:08:20.757Z,1260.00
2023-05-10T07:09:20.703Z,1256.00
2023-05-10T07:10:20.790Z,1237.00
2023-05-10T07:11:20.727Z,1217.00
2023-05-10T07:12:20.767Z,1203.00
2023-05-10T07:13:20.794Z,1168.00
2023-05-10T07:14:20.743Z,1166.00
2023-05-10T07:15:20.704Z,1178.00
2023-05-10T07:16:20.790Z,1178.00
2023-05-10T07:17:20.685Z,1175.00
2023-05-10T07:18:20.674Z,1189.00
2023-05-10T07:19:20.758Z,1175.00
2023-05-10T07:20:20.823Z,1165.00
2023-05-10T07:21:20.682Z,1158.00
2023-05-10T07:22:21.386Z,1176.00
2023-05-10T07:23:20.690Z,1149.00
2023-05-10T07:24:20.751Z,1142.00
2023-05-10T07:25:20.786Z,1163.00
2023-05-10T07:26:20.790Z,1132.00
2023-05-10T07:27:20.831Z,1107.00
2023-05-10T07:28:20.893Z,1077.00
2023-05-10T07:29:20.909Z,1019.00
2023-05-10T07:30:21.336Z,1067.00
2023-05-10T07:31:21.010Z,1017.00
2023-05-10T07:32:21.851Z,1032.00
2023-05-10T07:33:21.050Z,1050.00
2023-05-10T07:34:21.043Z,1023.00
2023-05-10T07:35:21.324Z,991.00
2023-05-10T07:36:21.098Z,1004.00
2023-05-10T07:37:21.147Z,1006.00
2023-05-10T07:38:21.162Z,975.00
2023-05-10T07:39:26.685Z,929.00
2023-05-10T07:40:22.229Z,931.00
2023-05-10T07:41:21.203Z,930.00
2023-05-10T07:42:21.181Z,901.00
2023-05-10T07:43:21.185Z,888.00
2023-05-10T07:44:21.196Z,944.00
2023-05-10T07:45:21.169Z,936.00
2023-05-10T07:46:21.180Z,1011.00
2023-05-10T07:47:21.188Z,1015.00
2023-05-10T07:48:21.140Z,1036.00
2023-05-10T07:49:21.171Z,1085.00
2023-05-10T07:50:21.165Z,1073.00
2023-05-10T07:51:21.147Z,1093.00
2023-05-10T07:52:22.652Z,1096.00
2023-05-10T07:53:21.083Z,1090.00
2023-05-10T07:54:21.093Z,1104.00
2023-05-10T07:55:21.116Z,1069.00
2023-05-10T07:56:21.182Z,1046.00
2023-05-10T07:57:21.180Z,1068.00
2023-05-10T07:58:21.231Z,1106.00
2023-05-10T07:59:21.248Z,1073.00
2023-05-10T08:00:21.370Z,1018.00
2023-05-10T08:01:21.288Z,1012.00
2023-05-10T08:02:21.395Z,1006.00
2023-05-10T08:03:21.452Z,920.00
2023-05-10T08:04:21.380Z,857.00
2023-05-10T08:05:21.443Z,763.00
2023-05-10T08:06:21.527Z,828.00
2023-05-10T08:07:21.493Z,730.00
2023-05-10T08:08:21.558Z,733.00
2023-05-10T08:09:21.559Z,684.00
2023-05-10T08:10:21.665Z,677.00
2023-05-10T08:11:21.614Z,687.00
2023-05-10T08:12:21.627Z,663.00
2023-05-10T08:13:21.701Z,628.00
2023-05-10T08:14:21.702Z,636.00
2023-05-10T08:15:21.746Z,631.00
2023-05-10T08:16:21.783Z,621.00
2023-05-10T08:17:22.833Z,613.00
2023-05-10T08:18:22.208Z,630.00
2023-05-10T08:19:21.781Z,613.00
2023-05-10T08:20:21.952Z,613.00
2023-05-10T08:21:21.760Z,638.00
2023-05-10T08:22:21.755Z,650.00
2023-05-10T08:23:21.752Z,663.00
2023-05-10T08:24:21.767Z,678.00
2023-05-10T08:25:21.746Z,719.00
2023-05-10T08:26:21.748Z,741.00
2023-05-10T08:27:21.789Z,661.00
2023-05-10T08:28:21.730Z,611.00
2023-05-10T08:29:21.721Z,631.00
2023-05-10T08:30:22.037Z,651.00
2023-05-10T08:31:21.747Z,685.00
2023-05-10T08:32:21.729Z,762.00
2023-05-10T08:33:21.732Z,996.00
2023-05-10T08:34:21.783Z,869.00
2023-05-10T08:35:21.817Z,938.00
2023-05-10T08:36:21.657Z,1087.00
2023-05-10T08:37:21.674Z,1200.00
2023-05-10T08:38:21.655Z,1484.00
2023-05-10T08:39:29.792Z,1575.00
2023-05-10T08:40:22.973Z,1583.00
2023-05-10T08:41:21.693Z,1627.00
2023-05-10T08:42:21.737Z,1734.00
2023-05-10T08:43:21.645Z,1943.00
2023-05-10T08:44:21.610Z,2282.00
2023-05-10T08:45:21.865Z,2400.00
2023-05-10T08:46:21.799Z,2348.00
2023-05-10T08:47:21.763Z,2237.00
2023-05-10T08:48:21.686Z,2262.00
2023-05-10T08:49:21.596Z,2187.00
2023-05-10T08:50:21.625Z,2155.00
2023-05-10T08:51:21.609Z,2101.00
2023-05-10T08:52:21.648Z,2016.00
2023-05-10T08:53:21.721Z,2197.00
2023-05-10T08:54:21.824Z,2155.00
2023-05-10T08:55:21.850Z,2152.00
2023-05-10T08:56:21.843Z,2237.00
2023-05-10T08:57:21.853Z,2329.00
2023-05-10T08:58:21.906Z,2381.00
2023-05-10T08:59:21.948Z,2401.00
2023-05-10T09:00:21.925Z,2417.00
2023-05-10T09:01:22.039Z,2440.00
2023-05-10T09:02:21.965Z,2442.00
2023-05-10T09:03:21.993Z,2412.00
2023-05-10T09:04:22.213Z,2412.00
2023-05-10T09:05:22.076Z,2408.00
2023-05-10T09:06:22.378Z,2319.00
2023-05-10T09:07:22.151Z,2331.00
2023-05-10T09:08:22.192Z,2371.00
2023-05-10T09:09:22.180Z,2383.00
2023-05-10T09:10:22.246Z,2392.00
2023-05-10T09:11:22.245Z,2404.00
2023-05-10T09:12:22.292Z,2424.00
2023-05-10T09:13:22.336Z,2325.00
2023-05-10T09:14:22.290Z,2401.00
2023-05-10T09:15:22.289Z,2431.00
2023-05-10T09:16:22.687Z,2442.00
2023-05-10T09:17:22.497Z,2486.00
2023-05-10T09:18:22.411Z,2452.00
2023-05-10T09:19:22.355Z,2454.00
2023-05-10T09:20:22.424Z,2430.00
2023-05-10T09:21:22.386Z,2459.00
2023-05-10T09:22:22.358Z,2452.00
2023-05-10T09:23:22.787Z,2452.00
2023-05-10T09:24:22.357Z,2482.00
2023-05-10T09:25:22.412Z,2471.00
2023-05-10T09:26:22.899Z,2481.00
2023-05-10T09:27:22.380Z,2490.00
2023-05-10T09:28:22.392Z,2489.00
2023-05-10T09:29:22.384Z,2485.00
2023-05-10T09:30:22.401Z,2478.00
2023-05-10T09:31:23.680Z,2501.00
2023-05-10T09:32:22.465Z,2503.00
2023-05-10T09:33:22.413Z,2524.00
2023-05-10T09:34:22.429Z,2508.00
2023-05-10T09:35:22.426Z,2516.00
2023-05-10T09:36:22.393Z,2468.00
2023-05-10T09:37:22.445Z,2456.00
2023-05-10T09:38:22.432Z,2463.00
2023-05-10T09:39:22.384Z,2449.00
2023-05-10T09:40:22.396Z,2457.00
2023-05-10T09:41:22.917Z,2476.00
2023-05-10T09:42:22.393Z,2472.00
2023-05-10T09:43:22.411Z,2470.00
2023-05-10T09:44:22.440Z,2476.00
2023-05-10T09:45:22.443Z,2474.00
2023-05-10T09:46:22.484Z,2479.00
2023-05-10T09:47:22.454Z,2441.00
2023-05-10T09:48:22.433Z,2471.00
2023-05-10T09:49:22.461Z,2470.00
2023-05-10T09:50:22.455Z,2478.00
2023-05-10T09:51:22.898Z,2470.00
2023-05-10T09:52:22.505Z,2473.00
2023-05-10T09:53:22.491Z,2394.00
2023-05-10T09:54:22.549Z,2342.00
2023-05-10T09:55:22.639Z,2368.00
2023-05-10T09:56:22.909Z,2241.00
2023-05-10T09:57:22.543Z,2098.00
2023-05-10T09:58:22.539Z,1875.00
2023-05-10T09:59:22.530Z,1671.00
2023-05-10T10:00:22.555Z,1702.00
2023-05-10T10:01:22.606Z,1687.00
2023-05-10T10:02:22.600Z,1655.00
2023-05-10T10:03:22.592Z,1675.00
2023-05-10T10:04:22.693Z,1659.00
2023-05-10T10:05:22.649Z,1569.00
2023-05-10T10:06:29.587Z,1549.00
2023-05-10T10:07:23.680Z,1460.00
2023-05-10T10:08:22.661Z,1506.00
2023-05-10T10:09:22.707Z,1470.00
2023-05-10T10:10:22.623Z,1486.00
2023-05-10T10:11:22.888Z,1530.00
2023-05-10T10:12:22.614Z,1489.00
2023-05-10T10:13:22.612Z,1591.00
2023-05-10T10:14:22.595Z,1547.00
2023-05-10T10:15:22.983Z,1649.00
2023-05-10T10:16:23.034Z,1656.00
2023-05-10T10:17:22.586Z,1547.00
2023-05-10T10:18:22.610Z,1534.00
2023-05-10T10:19:22.590Z,1489.00
2023-05-10T10:20:22.547Z,1485.00
2023-05-10T10:21:22.568Z,1535.00
2023-05-10T10:22:22.542Z,1427.00
2023-05-10T10:23:22.547Z,1378.00
2023-05-10T10:24:22.525Z,1376.00
2023-05-10T10:25:22.537Z,1389.00
2023-05-10T10:26:22.910Z,1437.00
2023-05-10T10:27:22.506Z,1416.00
2023-05-10T10:28:22.515Z,1461.00
2023-05-10T10:29:22.528Z,1455.00
2023-05-10T10:30:22.485Z,1448.00
2023-05-10T10:31:22.564Z,1362.00
2023-05-10T10:32:22.561Z,1338.00
2023-05-10T10:33:28.432Z,1348.00
2023-05-10T10:34:23.509Z,1349.00
2023-05-10T10:35:22.502Z,1353.00
2023-05-10T10:36:23.014Z,1397.00
2023-05-10T10:37:22.541Z,1418.00
2023-05-10T10:38:22.482Z,1355.00
2023-05-10T10:39:22.496Z,1351.00
2023-05-10T10:40:22.491Z,1394.00
2023-05-10T10:41:22.910Z,1373.00
2023-05-10T10:42:22.433Z,1365.00
2023-05-10T10:43:22.451Z,1379.00
2023-05-10T10:44:22.423Z,1298.00
2023-05-10T10:45:22.424Z,1220.00
2023-05-10T10:46:22.503Z,1214.00
2023-05-10T10:47:22.566Z,1192.00
2023-05-10T10:48:23.488Z,1194.00
2023-05-10T10:49:22.437Z,1198.00
2023-05-10T10:50:22.954Z,1190.00
2023-05-10T10:51:22.396Z,968.00
2023-05-10T10:52:22.501Z,964.00
2023-05-10T10:53:22.401Z,958.00
2023-05-10T10:54:22.354Z,803.00
2023-05-10T10:55:22.361Z,846.00
2023-05-10T10:56:22.395Z,932.00
2023-05-10T10:57:22.450Z,1015.00
2023-05-10T10:58:22.384Z,1059.00
2023-05-10T10:59:22.339Z,1044.00
2023-05-10T11:00:22.349Z,988.00
2023-05-10T11:01:22.471Z,990.00
2023-05-10T11:02:22.357Z,1032.00
2023-05-10T11:03:22.350Z,1343.00
2023-05-10T11:04:22.421Z,1105.00
2023-05-10T11:05:22.413Z,1085.00
2023-05-10T11:06:22.426Z,1108.00
2023-05-10T11:07:22.998Z,1070.00
2023-05-10T11:08:22.519Z,1109.00
2023-05-10T11:09:22.528Z,1112.00
2023-05-10T11:10:22.599Z,1080.00
2023-05-10T11:11:22.585Z,1085.00
2023-05-10T11:12:22.618Z,1047.00
2023-05-10T11:13:22.663Z,1034.00
2023-05-10T11:14:22.727Z,816.00
2023-05-10T11:15:22.749Z,894.00
2023-05-10T11:16:22.855Z,833.00
2023-05-10T11:17:22.786Z,753.00
2023-05-10T11:18:22.897Z,730.00
2023-05-10T11:19:22.882Z,646.00
2023-05-10T11:20:22.930Z,636.00
2023-05-10T11:21:22.945Z,635.00
2023-05-10T11:22:23.002Z,607.00
2023-05-10T11:23:23.087Z,655.00
2023-05-10T11:24:23.043Z,631.00
2023-05-10T11:25:23.941Z,618.00
2023-05-10T11:26:23.147Z,642.00
2023-05-10T11:27:23.452Z,728.00
2023-05-10T11:28:23.234Z,785.00
2023-05-10T11:29:23.174Z,826.00
2023-05-10T11:30:23.261Z,741.00
2023-05-10T11:31:23.318Z,873.00
2023-05-10T11:32:23.945Z,1061.00
2023-05-10T11:33:23.310Z,1293.00
2023-05-10T11:34:23.344Z,1318.00
2023-05-10T11:35:23.400Z,1247.00
2023-05-10T11:36:23.426Z,1273.00
2023-05-10T11:37:23.946Z,1372.00
2023-05-10T11:38:23.518Z,1414.00
2023-05-10T11:39:23.570Z,1440.00
2023-05-10T11:40:23.533Z,1487.00
2023-05-10T11:41:23.591Z,1516.00
2023-05-10T11:42:23.612Z,1527.00
2023-05-10T11:43:23.606Z,1555.00
2023-05-10T11:44:23.664Z,1558.00
2023-05-10T11:45:23.662Z,1579.00
2023-05-10T11:46:23.701Z,1604.00
2023-05-10T11:47:23.725Z,1609.00
2023-05-10T11:48:23.728Z,1618.00
2023-05-10T11:49:23.753Z,1616.00
2023-05-10T11:50:23.713Z,1595.00
2023-05-10T11:51:23.772Z,1620.00
2023-05-10T11:52:23.763Z,1659.00
2023-05-10T11:53:25.777Z,1669.00
2023-05-10T11:54:23.780Z,1652.00
2023-05-10T11:55:23.779Z,1673.00
2023-05-10T11:56:23.793Z,1669.00
2023-05-10T11:57:23.858Z,1685.00
2023-05-10T11:58:23.866Z,1702.00
2023-05-10T11:59:23.844Z,1714.00
2023-05-10T12:00:23.868Z,1722.00
2023-05-10T12:01:23.828Z,1715.00
2023-05-10T12:02:23.998Z,1717.00
2023-05-10T12:03:24.011Z,1718.00
2023-05-10T12:04:23.925Z,1746.00
2023-05-10T12:05:23.914Z,1756.00
2023-05-10T12:06:23.916Z,1749.00
2023-05-10T12:07:23.958Z,1772.00
2023-05-10T12:08:23.968Z,1763.00